createdAt,value
2019-05-23T00:02:16.527Z,22.27
2019-05-23T00:07:22.640Z,21.90
2019-05-23T00:12:43.401Z,16.93
2019-05-23T00:17:49.364Z,19.90
2019-05-23T00:22:54.120Z,17.12
2019-05-23T00:27:58.859Z,17.92
2019-05-23T00:33:04.873Z,15.55
2019-05-23T00:38:09.727Z,16.77
2019-05-23T00:43:13.855Z,14.53
2019-05-23T00:48:18.711Z,17.15
2019-05-23T00:53:23.847Z,15.30
2019-05-23T00:58:28.411Z,17.92
2019-05-23T01:03:32.492Z,14.58
2019-05-23T01:08:37.363Z,18.90
2019-05-23T01:13:41.646Z,17.77
2019-05-23T01:18:45.609Z,20.15
2019-05-23T01:23:51.474Z,18.55
2019-05-23T01:28:56.474Z,15.23
2019-05-23T01:34:02.260Z,17.48
2019-05-23T01:39:10.394Z,14.70
2019-05-23T01:44:14.622Z,18.25
2019-05-23T01:49:19.006Z,17.35
2019-05-23T01:54:23.194Z,17.73
2019-05-23T01:59:27.718Z,15.90
2019-05-23T02:04:32.278Z,16.02
2019-05-23T02:09:36.436Z,19.17
2019-05-23T02:14:42.710Z,21.97
2019-05-23T02:19:48.364Z,19.98
2019-05-23T02:24:53.841Z,17.95
2019-05-23T02:29:58.263Z,23.07
2019-05-23T02:35:04.495Z,19.12
2019-05-23T02:40:13.916Z,19.10
2019-05-23T02:45:27.514Z,22.93
2019-05-23T02:50:50.718Z,22.07
2019-05-23T02:55:58.162Z,20.17
2019-05-23T03:01:23.090Z,19.57
2019-05-23T03:06:27.518Z,21.10
2019-05-23T03:11:35.349Z,23.95
2019-05-23T03:16:42.394Z,22.48
2019-05-23T03:21:48.343Z,19.20
2019-05-23T03:27:01.753Z,16.62
2019-05-23T03:32:13.358Z,18.30
2019-05-23T03:37:18.949Z,20.17
2019-05-23T03:42:23.418Z,18.62
2019-05-23T03:47:28.652Z,18.67
2019-05-23T03:52:34.009Z,17.87
2019-05-23T03:57:38.059Z,16.55
2019-05-23T04:02:44.181Z,16.57
2019-05-23T04:07:49.135Z,14.68
2019-05-23T04:12:53.896Z,16.82
2019-05-23T04:17:58.047Z,19.20
2019-05-23T04:23:02.686Z,15.90
2019-05-23T04:28:06.947Z,16.65
2019-05-23T04:33:11.901Z,17.10
2019-05-23T04:38:16.358Z,17.48
2019-05-23T04:43:20.298Z,20.08
2019-05-23T04:48:24.546Z,21.02
2019-05-23T04:53:28.999Z,20.45
2019-05-23T04:58:33.357Z,22.13
2019-05-23T05:03:38.036Z,24.00
2019-05-23T05:08:42.367Z,23.60
2019-05-23T05:13:46.718Z,23.55
2019-05-23T05:18:54.675Z,19.45
2019-05-23T05:23:57.173Z,19.92
2019-05-23T05:29:01.135Z,21.55
2019-05-23T05:34:05.686Z,21.65
2019-05-23T05:39:11.898Z,20.75
2019-05-23T05:44:15.955Z,19.55
2019-05-23T05:49:19.999Z,16.37
2019-05-23T05:54:24.438Z,14.45
2019-05-23T05:59:28.495Z,14.73
2019-05-23T06:04:33.074Z,23.85
2019-05-23T06:09:38.700Z,26.25
2019-05-23T06:14:46.422Z,26.07
2019-05-23T06:19:48.528Z,26.02
2019-05-23T06:24:55.170Z,23.07
2019-05-23T06:29:58.508Z,24.35
2019-05-23T06:35:02.489Z,21.27
2019-05-23T06:40:11.117Z,22.82
2019-05-23T06:45:16.538Z,20.25
2019-05-23T06:50:20.725Z,19.15
2019-05-23T06:55:24.719Z,18.60
2019-05-23T07:00:29.073Z,18.80
2019-05-23T07:05:36.038Z,17.98
2019-05-23T07:10:42.408Z,17.60
2019-05-23T07:15:46.831Z,17.35
2019-05-23T07:20:50.784Z,19.82
2019-05-23T07:25:54.712Z,15.43
2019-05-23T07:30:59.465Z,16.45
2019-05-23T07:36:03.531Z,17.55
2019-05-23T07:41:08.353Z,19.30
2019-05-23T07:46:12.691Z,17.57
2019-05-23T07:51:16.750Z,20.02
2019-05-23T07:56:25.292Z,17.07
2019-05-23T08:01:30.909Z,18.42
2019-05-23T08:06:35.681Z,17.80
2019-05-23T08:11:40.493Z,14.33
2019-05-23T08:16:44.610Z,9.30
2019-05-23T08:21:48.699Z,7.72
2019-05-23T08:26:53.785Z,4.20
2019-05-23T08:31:58.438Z,2.87
2019-05-23T08:37:03.060Z,2.20
2019-05-23T08:42:08.515Z,3.98
2019-05-23T08:47:13.523Z,4.05
2019-05-23T08:52:17.591Z,4.15
2019-05-23T08:57:22.550Z,4.17
2019-05-23T09:02:27.662Z,3.17
2019-05-23T09:07:31.927Z,4.70
2019-05-23T09:12:36.293Z,4.10
2019-05-23T09:17:52.241Z,3.55
2019-05-23T09:22:46.173Z,3.05
2019-05-23T09:27:51.757Z,3.17
2019-05-23T09:32:56.058Z,3.12
2019-05-23T09:38:00.058Z,3.40
2019-05-23T09:43:05.570Z,3.58
2019-05-23T09:48:09.523Z,3.08
2019-05-23T09:53:13.832Z,3.17
2019-05-23T09:58:18.091Z,4.03
2019-05-23T10:03:22.114Z,3.62
2019-05-23T10:08:26.116Z,10.63
2019-05-23T10:13:39.201Z,6.25
2019-05-23T10:18:36.318Z,6.05
2019-05-23T10:23:40.267Z,19.95
2019-05-23T10:28:44.214Z,19.02
2019-05-23T10:33:48.566Z,16.75
2019-05-23T10:38:52.609Z,16.23
2019-05-23T10:43:56.603Z,17.90
2019-05-23T10:49:00.753Z,6.92
2019-05-23T10:54:05.326Z,9.60
2019-05-23T10:59:09.267Z,14.63
2019-05-23T11:04:13.313Z,8.68
2019-05-23T11:09:17.943Z,8.75
2019-05-23T11:14:21.900Z,5.50
2019-05-23T11:19:26.005Z,5.65
2019-05-23T11:24:29.936Z,6.22
2019-05-23T11:29:33.979Z,15.25
2019-05-23T11:34:38.826Z,5.33
2019-05-23T11:39:49.704Z,5.22
2019-05-23T11:44:48.603Z,139.20
2019-05-23T11:49:52.641Z,7.70
2019-05-23T11:55:00.021Z,13.80
2019-05-23T12:00:06.943Z,4.90
2019-05-23T12:05:16.256Z,2.83
2019-05-23T12:10:20.408Z,5.10
2019-05-23T12:15:28.720Z,11.50
2019-05-23T12:20:32.779Z,17.12
2019-05-23T12:25:38.151Z,6.37
2019-05-23T12:30:42.283Z,8.78
2019-05-23T12:35:46.482Z,10.55
2019-05-23T12:40:50.530Z,10.48
2019-05-23T12:45:54.560Z,8.85
2019-05-23T12:51:02.888Z,9.15
2019-05-23T12:56:07.115Z,8.75
2019-05-23T13:01:13.490Z,7.35
2019-05-23T13:06:17.601Z,8.63
2019-05-23T13:11:21.560Z,7.50
2019-05-23T13:16:25.929Z,9.90
2019-05-23T13:21:29.854Z,9.28
2019-05-23T13:26:33.888Z,10.28
2019-05-23T13:31:38.039Z,9.98
2019-05-23T13:36:42.139Z,14.58
2019-05-23T13:41:46.233Z,15.45
2019-05-23T13:46:50.500Z,18.98
2019-05-23T13:51:54.942Z,18.57
2019-05-23T13:56:59.698Z,20.32
2019-05-23T14:02:03.910Z,19.62
2019-05-23T14:07:10.237Z,7.83
2019-05-23T14:12:22.219Z,5.55
2019-05-23T14:17:21.695Z,5.20
2019-05-23T14:22:26.665Z,6.92
2019-05-23T14:27:38.245Z,7.50
2019-05-23T14:32:52.855Z,10.98
2019-05-23T14:38:01.154Z,9.23
2019-05-23T14:43:10.054Z,10.18
2019-05-23T14:48:18.031Z,12.23
2019-05-23T14:53:23.702Z,17.70
2019-05-23T14:58:27.957Z,17.25
2019-05-23T15:03:35.692Z,27.45
2019-05-23T15:08:50.262Z,41.13
2019-05-23T15:13:45.051Z,50.05
2019-05-23T15:18:49.149Z,46.65
2019-05-23T15:23:53.108Z,51.68
2019-05-23T15:28:57.073Z,49.27
2019-05-23T15:34:01.041Z,49.65
2019-05-23T15:39:10.040Z,53.25
2019-05-23T15:44:25.626Z,55.98
2019-05-23T15:49:19.590Z,56.77
2019-05-23T15:54:28.242Z,54.13
2019-05-23T15:59:39.582Z,49.60
2019-05-23T16:04:44.526Z,42.17
2019-05-23T16:09:48.859Z,37.80
2019-05-23T16:14:53.047Z,36.80
2019-05-23T16:19:58.612Z,35.13
2019-05-23T16:25:02.708Z,34.88
2019-05-23T16:30:08.622Z,31.15
2019-05-23T16:35:12.809Z,29.57
2019-05-23T16:40:16.986Z,27.87
2019-05-23T16:45:21.034Z,21.25
2019-05-23T16:50:25.275Z,19.07
2019-05-23T16:55:37.174Z,18.17
2019-05-23T17:00:58.061Z,21.23
2019-05-23T17:06:19.228Z,18.95
2019-05-23T17:11:24.744Z,21.25
2019-05-23T17:16:30.323Z,21.45
2019-05-23T17:21:38.880Z,22.10
2019-05-23T17:26:54.183Z,28.40
2019-05-23T17:31:58.763Z,33.18
2019-05-23T17:37:02.904Z,32.45
2019-05-23T17:42:07.343Z,34.08
2019-05-23T17:47:11.313Z,38.78
2019-05-23T17:52:15.470Z,39.55
2019-05-23T17:57:19.917Z,44.50
2019-05-23T18:02:24.841Z,51.40
2019-05-23T18:07:28.867Z,52.67
2019-05-23T18:12:33.515Z,57.35
2019-05-23T18:17:38.143Z,52.43
2019-05-23T18:22:42.153Z,55.90
2019-05-23T18:27:46.506Z,59.70
2019-05-23T18:32:52.035Z,52.17
2019-05-23T18:37:56.501Z,52.55
2019-05-23T18:43:00.479Z,54.27
2019-05-23T18:48:06.416Z,53.70
2019-05-23T18:53:11.752Z,53.38
2019-05-23T18:58:19.361Z,48.83
2019-05-23T19:03:23.178Z,54.95
2019-05-23T19:08:27.421Z,59.33
2019-05-23T19:13:31.754Z,57.95
2019-05-23T19:18:36.666Z,69.60
2019-05-23T19:23:41.410Z,60.60
2019-05-23T19:28:46.849Z,56.70
2019-05-23T19:33:51.530Z,52.80
2019-05-23T19:38:55.687Z,56.02
2019-05-23T19:43:59.710Z,56.80
2019-05-23T19:49:04.184Z,55.60
2019-05-23T19:54:08.771Z,59.83
2019-05-23T19:59:13.115Z,59.48
2019-05-23T20:04:18.400Z,55.63
2019-05-23T20:09:24.233Z,54.70
2019-05-23T20:14:28.193Z,54.15
2019-05-23T20:19:32.131Z,58.50
2019-05-23T20:24:36.129Z,56.00
2019-05-23T20:29:40.254Z,58.70
2019-05-23T20:34:44.185Z,62.25
2019-05-23T20:39:48.220Z,63.10
2019-05-23T20:44:52.378Z,64.15
2019-05-23T20:49:56.425Z,66.65
2019-05-23T20:55:00.377Z,66.25
2019-05-23T21:00:08.503Z,67.82
2019-05-23T21:05:12.927Z,64.95
2019-05-23T21:10:31.970Z,65.03
2019-05-23T21:15:36.035Z,64.17
2019-05-23T21:20:40.255Z,66.35
2019-05-23T21:25:45.903Z,70.12
2019-05-23T21:30:49.846Z,68.33
2019-05-23T21:35:54.496Z,72.60
2019-05-23T21:41:02.200Z,75.45
2019-05-23T21:46:04.028Z,69.30
2019-05-23T21:51:08.064Z,75.62
2019-05-23T21:56:12.089Z,79.80
2019-05-23T22:01:20.831Z,72.42
2019-05-23T22:06:32.602Z,77.92
2019-05-23T22:11:36.667Z,68.72
2019-05-23T22:16:40.719Z,67.65
2019-05-23T22:21:44.933Z,69.47
2019-05-23T22:26:49.105Z,64.72
2019-05-23T22:31:56.433Z,57.85
2019-05-23T22:36:59.355Z,57.78
2019-05-23T22:42:05.930Z,53.78
2019-05-23T22:47:10.384Z,55.52
2019-05-23T22:52:14.449Z,64.65
2019-05-23T22:57:18.498Z,58.65
2019-05-23T23:02:22.556Z,50.45
2019-05-23T23:07:26.601Z,56.10
2019-05-23T23:12:30.647Z,55.23
2019-05-23T23:17:34.615Z,56.23
2019-05-23T23:22:38.773Z,62.03
2019-05-23T23:27:42.857Z,60.25
2019-05-23T23:32:47.014Z,58.05
2019-05-23T23:37:50.976Z,54.25
2019-05-23T23:42:54.919Z,50.70
2019-05-23T23:48:16.420Z,56.25
2019-05-23T23:53:38.365Z,55.12
2019-05-23T23:58:41.586Z,49.35
